createdAt,value
2023-03-31T00:06:01.254Z,3.53
2023-03-31T00:09:35.787Z,3.97
2023-03-31T00:16:18.611Z,3.15
2023-03-31T00:19:52.441Z,3.70
2023-03-31T00:23:11.215Z,3.60
2023-03-31T00:26:37.983Z,3.70
2023-03-31T00:30:05.549Z,4.37
2023-03-31T00:33:26.719Z,3.75
2023-03-31T00:36:51.189Z,3.62
2023-03-31T00:40:10.842Z,3.53
2023-03-31T00:43:30.314Z,4.03
2023-03-31T00:47:34.471Z,4.07
2023-03-31T00:51:08.541Z,3.58
2023-03-31T00:54:28.062Z,3.62
2023-03-31T00:57:48.480Z,3.22
2023-03-31T01:01:25.030Z,3.70
2023-03-31T01:04:51.121Z,4.32
2023-03-31T01:08:20.293Z,2.90
2023-03-31T01:11:48.620Z,3.87
2023-03-31T01:15:07.406Z,4.12
2023-03-31T01:18:40.873Z,3.40
2023-03-31T01:22:50.258Z,3.62
2023-03-31T01:26:39.466Z,3.05
2023-03-31T01:30:34.556Z,3.25
2023-03-31T01:34:28.873Z,3.62
2023-03-31T01:38:21.332Z,3.60
2023-03-31T01:41:55.905Z,3.22
2023-03-31T01:45:59.537Z,3.58
2023-03-31T01:49:45.106Z,4.18
2023-03-31T01:53:17.468Z,2.92
2023-03-31T01:57:05.678Z,3.53
2023-03-31T02:00:40.282Z,3.17
2023-03-31T02:04:38.091Z,3.17
2023-03-31T02:07:54.984Z,3.47
2023-03-31T02:11:17.088Z,3.47
2023-03-31T02:14:47.754Z,3.85
2023-03-31T02:18:14.373Z,3.55
2023-03-31T02:21:50.604Z,3.55
2023-03-31T02:25:20.088Z,3.65
2023-03-31T02:28:40.990Z,3.87
2023-03-31T02:32:34.128Z,3.75
2023-03-31T02:36:09.496Z,3.45
2023-03-31T02:39:47.537Z,4.05
2023-03-31T02:43:12.115Z,3.30
2023-03-31T02:46:40.456Z,3.10
2023-03-31T02:50:06.115Z,3.08
2023-03-31T02:53:55.045Z,3.50
2023-03-31T02:57:34.023Z,3.90
2023-03-31T03:01:19.835Z,3.15
2023-03-31T03:05:03.964Z,3.03
2023-03-31T03:08:50.629Z,2.62
2023-03-31T03:12:29.355Z,2.90
2023-03-31T03:15:56.376Z,2.95
2023-03-31T03:19:23.910Z,3.05
2023-03-31T03:22:41.298Z,3.00
2023-03-31T03:26:11.414Z,3.15
2023-03-31T03:29:38.434Z,2.53
2023-03-31T03:33:18.977Z,2.60
2023-03-31T03:36:50.668Z,2.45
2023-03-31T03:43:38.257Z,2.15
2023-03-31T03:47:15.310Z,2.47
2023-03-31T03:50:52.973Z,3.35
2023-03-31T03:57:54.990Z,2.50
2023-03-31T04:01:09.693Z,2.53
2023-03-31T04:04:34.254Z,2.37
2023-03-31T04:07:55.258Z,2.17
2023-03-31T04:11:28.260Z,3.03
2023-03-31T04:14:51.320Z,2.42
2023-03-31T04:18:24.945Z,2.37
2023-03-31T04:21:47.165Z,1.60
2023-03-31T04:25:15.214Z,3.33
2023-03-31T04:28:51.120Z,2.40
2023-03-31T04:32:23.349Z,2.30
2023-03-31T04:35:50.002Z,3.17
2023-03-31T04:39:16.394Z,2.10
2023-03-31T04:42:45.448Z,2.40
2023-03-31T04:46:22.232Z,3.00
2023-03-31T04:50:01.093Z,3.75
2023-03-31T04:53:39.089Z,3.47
2023-03-31T04:56:59.536Z,4.25
2023-03-31T05:00:27.084Z,2.80
2023-03-31T05:07:45.507Z,4.85
2023-03-31T05:10:56.731Z,3.25
2023-03-31T05:14:27.632Z,2.95
2023-03-31T05:18:02.094Z,3.80
2023-03-31T05:21:38.076Z,3.30
2023-03-31T05:25:13.392Z,3.30
2023-03-31T05:28:32.539Z,3.20
2023-03-31T05:31:54.104Z,2.47
2023-03-31T05:35:43.281Z,2.95
2023-03-31T05:39:36.942Z,2.25
2023-03-31T05:43:19.016Z,3.12
2023-03-31T05:46:55.756Z,3.62
2023-03-31T05:50:23.642Z,3.05
2023-03-31T05:53:59.417Z,3.65
2023-03-31T05:57:46.590Z,3.22
2023-03-31T06:01:23.231Z,4.25
2023-03-31T06:05:00.907Z,3.78
2023-03-31T06:08:40.965Z,3.53
2023-03-31T06:12:05.801Z,3.17
2023-03-31T06:15:40.063Z,4.28
2023-03-31T06:19:21.459Z,3.40
2023-03-31T06:22:56.308Z,4.57
2023-03-31T06:26:18.970Z,3.92
2023-03-31T06:29:52.886Z,3.40
2023-03-31T06:33:26.909Z,4.25
2023-03-31T06:40:23.183Z,3.67
2023-03-31T06:43:58.786Z,3.30
2023-03-31T06:47:27.096Z,3.37
2023-03-31T06:51:02.852Z,3.17
2023-03-31T06:54:37.626Z,3.62
2023-03-31T06:57:52.574Z,3.80
2023-03-31T07:01:27.989Z,3.62
2023-03-31T07:04:56.642Z,3.12
2023-03-31T07:08:24.504Z,3.20
2023-03-31T07:12:05.591Z,2.87
2023-03-31T07:18:50.599Z,2.60
2023-03-31T07:22:23.978Z,2.83
2023-03-31T07:25:43.522Z,2.87
2023-03-31T07:29:20.664Z,2.95
2023-03-31T07:32:40.212Z,2.75
2023-03-31T07:36:10.831Z,2.55
2023-03-31T07:39:26.488Z,3.03
2023-03-31T07:42:52.553Z,3.42
2023-03-31T07:46:27.399Z,3.28
2023-03-31T07:49:45.339Z,2.75
2023-03-31T07:53:23.770Z,2.83
2023-03-31T07:56:53.158Z,2.67
2023-03-31T08:00:16.263Z,2.62
2023-03-31T08:03:55.843Z,2.40
2023-03-31T08:07:31.158Z,2.60
2023-03-31T08:10:51.323Z,2.80
2023-03-31T08:14:16.501Z,2.67
2023-03-31T08:17:42.599Z,2.28
2023-03-31T08:21:20.158Z,2.45
2023-03-31T08:24:45.425Z,2.40
2023-03-31T08:28:02.074Z,2.40
2023-03-31T08:31:26.738Z,2.33
2023-03-31T08:34:43.932Z,2.62
2023-03-31T08:38:01.713Z,2.10
2023-03-31T08:41:41.912Z,2.33
2023-03-31T08:48:45.473Z,2.65
2023-03-31T08:52:20.316Z,2.45
2023-03-31T08:55:59.699Z,2.10
2023-03-31T08:59:45.243Z,1.98
2023-03-31T09:03:19.096Z,2.30
2023-03-31T09:07:04.142Z,1.83
2023-03-31T09:10:56.479Z,2.17
2023-03-31T09:14:35.655Z,2.00
2023-03-31T09:17:58.289Z,2.42
2023-03-31T09:21:51.960Z,1.98
2023-03-31T09:25:43.251Z,2.40
2023-03-31T09:29:31.965Z,1.90
2023-03-31T09:33:13.329Z,1.77
2023-03-31T09:36:55.596Z,1.75
2023-03-31T09:40:22.573Z,1.90
2023-03-31T09:43:52.822Z,1.60
2023-03-31T09:47:29.804Z,1.70
2023-03-31T09:51:09.552Z,1.90
2023-03-31T09:54:52.020Z,1.95
2023-03-31T09:58:26.311Z,2.00
2023-03-31T10:02:00.439Z,2.00
2023-03-31T10:05:37.785Z,1.55
2023-03-31T10:09:10.440Z,1.80
2023-03-31T10:12:37.602Z,1.52
2023-03-31T10:16:53.691Z,2.08
2023-03-31T10:20:02.712Z,1.85
2023-03-31T10:23:51.374Z,1.90
2023-03-31T10:27:21.386Z,2.30
2023-03-31T10:30:45.083Z,2.20
2023-03-31T10:34:19.090Z,2.15
2023-03-31T10:37:37.313Z,1.85
2023-03-31T10:41:00.555Z,1.90
2023-03-31T10:44:37.966Z,2.00
2023-03-31T10:48:02.038Z,1.90
2023-03-31T10:55:36.024Z,1.90
2023-03-31T10:59:06.731Z,1.70
2023-03-31T11:06:34.438Z,1.80
2023-03-31T11:10:29.777Z,1.55
2023-03-31T11:14:20.539Z,1.85
2023-03-31T11:18:06.138Z,1.60
2023-03-31T11:21:59.988Z,1.55
2023-03-31T11:25:35.832Z,1.25
2023-03-31T11:29:26.222Z,1.37
2023-03-31T11:33:06.242Z,2.00
2023-03-31T11:36:57.611Z,1.60
2023-03-31T11:40:35.030Z,1.20
2023-03-31T11:44:11.064Z,1.27
2023-03-31T11:47:49.267Z,1.30
2023-03-31T11:51:14.790Z,1.30
2023-03-31T11:55:27.499Z,1.48
2023-03-31T11:58:53.470Z,1.33
2023-03-31T12:02:19.190Z,1.80
2023-03-31T12:05:49.820Z,1.58
2023-03-31T12:09:41.022Z,1.30
2023-03-31T12:13:34.675Z,1.65
2023-03-31T12:16:54.571Z,1.30
2023-03-31T12:20:47.516Z,1.17
2023-03-31T12:24:15.326Z,1.30
2023-03-31T12:27:50.107Z,1.65
2023-03-31T12:31:15.126Z,1.60
2023-03-31T12:35:00.357Z,1.70
2023-03-31T12:38:28.732Z,1.80
2023-03-31T12:42:11.267Z,1.75
2023-03-31T12:45:33.811Z,1.65
2023-03-31T12:49:20.305Z,2.00
2023-03-31T12:52:53.203Z,2.22
2023-03-31T12:56:49.212Z,1.83
2023-03-31T13:00:12.771Z,1.80
2023-03-31T13:03:49.361Z,1.50
2023-03-31T13:07:46.586Z,1.65
2023-03-31T13:11:37.592Z,1.80
2023-03-31T13:15:14.992Z,2.00
2023-03-31T13:18:56.257Z,1.85
2023-03-31T13:22:47.551Z,1.73
2023-03-31T13:26:35.733Z,1.40
2023-03-31T13:29:52.228Z,1.40
2023-03-31T13:33:12.047Z,1.52
2023-03-31T13:36:57.244Z,1.50
2023-03-31T13:40:25.216Z,1.20
2023-03-31T13:43:43.873Z,1.40
2023-03-31T13:46:57.492Z,1.62
2023-03-31T13:50:11.092Z,1.60
2023-03-31T13:53:40.480Z,1.48
2023-03-31T13:57:14.476Z,1.75
2023-03-31T14:00:33.093Z,1.70
2023-03-31T14:03:55.567Z,1.42
2023-03-31T14:07:07.799Z,1.37
2023-03-31T14:10:36.630Z,1.10
2023-03-31T14:13:43.548Z,1.67
2023-03-31T14:17:02.905Z,1.48
2023-03-31T14:20:31.581Z,1.70
2023-03-31T14:23:58.993Z,1.52
2023-03-31T14:27:48.658Z,1.90
2023-03-31T14:31:24.099Z,1.42
2023-03-31T14:34:33.167Z,1.30
2023-03-31T14:37:38.815Z,1.40
2023-03-31T14:40:57.797Z,2.30
2023-03-31T14:44:13.000Z,1.73
2023-03-31T14:47:28.659Z,1.45
2023-03-31T14:50:37.435Z,1.80
2023-03-31T14:53:40.838Z,2.30
2023-03-31T14:56:55.374Z,2.45
2023-03-31T15:00:01.285Z,1.90
2023-03-31T15:03:15.521Z,1.37
2023-03-31T15:06:22.478Z,1.70
2023-03-31T15:09:35.069Z,2.22
2023-03-31T15:12:38.577Z,2.62
2023-03-31T15:16:31.730Z,2.55
2023-03-31T15:19:36.233Z,1.80
2023-03-31T15:22:49.233Z,1.70
2023-03-31T15:26:15.614Z,1.25
2023-03-31T15:29:36.948Z,1.25
2023-03-31T15:32:40.436Z,1.17
2023-03-31T15:35:46.858Z,1.30
2023-03-31T15:38:57.532Z,1.40
2023-03-31T15:42:08.574Z,1.70
2023-03-31T15:45:31.380Z,1.50
2023-03-31T15:48:48.741Z,1.40
2023-03-31T15:51:54.536Z,1.60
2023-03-31T15:58:56.453Z,1.58
2023-03-31T16:02:01.247Z,1.45
2023-03-31T16:08:48.836Z,1.27
2023-03-31T16:11:56.594Z,1.45
2023-03-31T16:15:28.420Z,1.40
2023-03-31T16:18:54.602Z,1.25
2023-03-31T16:22:02.512Z,1.25
2023-03-31T16:25:14.515Z,1.10
2023-03-31T16:28:24.750Z,1.50
2023-03-31T16:31:42.497Z,1.40
2023-03-31T16:35:05.911Z,1.30
2023-03-31T16:38:12.800Z,1.30
2023-03-31T16:41:19.474Z,0.90
2023-03-31T16:44:22.309Z,1.73
2023-03-31T16:47:35.017Z,1.00
2023-03-31T16:50:44.799Z,1.30
2023-03-31T16:53:48.650Z,1.08
2023-03-31T16:57:11.334Z,1.02
2023-03-31T17:00:19.618Z,0.98
2023-03-31T17:03:23.333Z,1.20
2023-03-31T17:06:31.362Z,1.10
2023-03-31T17:09:34.000Z,1.35
2023-03-31T17:12:41.848Z,1.35
2023-03-31T17:15:49.625Z,1.67
2023-03-31T17:19:18.482Z,1.05
2023-03-31T17:22:41.799Z,1.15
2023-03-31T17:25:53.738Z,1.20
2023-03-31T17:28:57.503Z,1.73
2023-03-31T17:32:25.721Z,1.60
2023-03-31T17:35:28.827Z,1.70
2023-03-31T17:38:32.763Z,1.50
2023-03-31T17:41:55.578Z,1.30
2023-03-31T17:45:20.747Z,1.40
2023-03-31T17:48:26.677Z,1.35
2023-03-31T17:51:32.846Z,1.52
2023-03-31T17:54:35.829Z,1.60
2023-03-31T17:58:13.895Z,1.40
2023-03-31T18:01:22.081Z,1.87
2023-03-31T18:04:29.676Z,1.52
2023-03-31T18:07:36.155Z,1.42
2023-03-31T18:10:46.329Z,1.67
2023-03-31T18:14:12.124Z,1.48
2023-03-31T18:17:25.299Z,2.03
2023-03-31T18:20:48.895Z,2.50
2023-03-31T18:23:57.603Z,2.40
2023-03-31T18:27:00.728Z,1.77
2023-03-31T18:30:08.663Z,1.75
2023-03-31T18:33:33.872Z,1.12
2023-03-31T18:36:42.503Z,1.40
2023-03-31T18:39:51.676Z,1.40
2023-03-31T18:42:55.930Z,1.40
2023-03-31T18:46:01.413Z,1.60
2023-03-31T18:49:05.945Z,1.62
2023-03-31T18:52:08.889Z,1.35
2023-03-31T18:55:23.391Z,1.30
2023-03-31T18:58:48.726Z,1.73
2023-03-31T19:01:56.850Z,1.73
2023-03-31T19:05:02.269Z,1.62
2023-03-31T19:08:08.518Z,1.83
2023-03-31T19:11:16.217Z,1.95
2023-03-31T19:14:19.716Z,1.60
2023-03-31T19:17:22.852Z,1.87
2023-03-31T19:20:47.235Z,1.90
2023-03-31T19:24:10.076Z,1.75
2023-03-31T19:27:39.642Z,1.60
2023-03-31T19:31:07.188Z,1.52
2023-03-31T19:34:11.789Z,1.80
2023-03-31T19:37:17.647Z,1.60
2023-03-31T19:40:57.257Z,1.85
2023-03-31T19:44:26.106Z,1.60
2023-03-31T19:48:16.458Z,1.70
2023-03-31T19:51:56.300Z,1.05
2023-03-31T19:55:13.719Z,0.80
2023-03-31T19:58:39.841Z,1.08
2023-03-31T20:09:28.066Z,0.50
2023-03-31T20:12:56.802Z,0.65
2023-03-31T20:16:31.970Z,0.50
2023-03-31T20:19:59.647Z,0.70
2023-03-31T20:23:34.888Z,0.82
2023-03-31T20:26:50.826Z,0.80
2023-03-31T20:30:18.187Z,0.70
2023-03-31T20:33:46.327Z,0.60
2023-03-31T20:37:30.294Z,0.90
2023-03-31T20:41:06.005Z,0.85
2023-03-31T20:44:33.518Z,0.80
2023-03-31T20:47:37.920Z,0.95
2023-03-31T20:51:09.847Z,0.82
2023-03-31T20:54:51.835Z,0.70
2023-03-31T20:58:22.485Z,1.10
2023-03-31T21:01:40.120Z,0.57
2023-03-31T21:05:07.682Z,0.80
2023-03-31T21:08:43.404Z,0.93
2023-03-31T21:12:02.245Z,1.02
2023-03-31T21:15:36.329Z,1.33
2023-03-31T21:19:11.177Z,1.27
2023-03-31T21:22:53.699Z,0.95
2023-03-31T21:26:25.646Z,1.08
2023-03-31T21:29:59.482Z,1.20
2023-03-31T21:33:17.723Z,1.40
2023-03-31T21:36:53.644Z,0.75
2023-03-31T21:40:29.871Z,0.80
2023-03-31T21:43:56.381Z,0.77
2023-03-31T21:47:23.740Z,0.60
2023-03-31T21:50:41.299Z,0.70
2023-03-31T21:54:08.338Z,0.60
2023-03-31T21:57:42.218Z,0.77
2023-03-31T22:01:10.168Z,0.73
2023-03-31T22:04:39.159Z,1.25
2023-03-31T22:08:07.594Z,0.80
2023-03-31T22:11:33.908Z,0.73
2023-03-31T22:14:51.563Z,0.90
2023-03-31T22:18:08.687Z,0.73
2023-03-31T22:21:35.970Z,0.52
2023-03-31T22:25:00.133Z,0.80
2023-03-31T22:28:39.406Z,0.95
2023-03-31T22:31:56.357Z,0.80
2023-03-31T22:35:28.913Z,0.80
2023-03-31T22:38:43.978Z,0.82
2023-03-31T22:42:08.436Z,0.80
2023-03-31T22:45:38.175Z,1.08
2023-03-31T22:48:55.642Z,1.23
2023-03-31T22:52:22.400Z,1.60
2023-03-31T22:55:54.448Z,2.22
2023-03-31T22:59:16.173Z,1.92
2023-03-31T23:03:07.784Z,1.62
2023-03-31T23:06:34.793Z,1.20
2023-03-31T23:10:22.977Z,0.98
2023-03-31T23:13:37.733Z,1.40
2023-03-31T23:17:10.756Z,1.20
2023-03-31T23:20:29.763Z,1.00
2023-03-31T23:24:01.882Z,0.80
2023-03-31T23:27:16.676Z,0.80
2023-03-31T23:30:57.309Z,0.85
2023-03-31T23:34:23.754Z,0.50
2023-03-31T23:37:55.433Z,0.60
2023-03-31T23:41:35.303Z,0.90
2023-03-31T23:44:52.322Z,1.30
2023-03-31T23:48:43.136Z,0.85
2023-03-31T23:51:57.783Z,0.60
2023-03-31T23:55:25.070Z,0.77
2023-03-31T23:58:52.350Z,1.00
